Time;durP1;ratioP1;P1;durP2;ratioP2;P2;SDS_P1;SDS_P2;PMS_P1;PMS_P2;Temp;Humidity;BMP_temperature;BMP_pressure;BME280_temperature;BME280_humidity;BME280_pressure;Samples;Min_cycle;Max_cycle;Signal;HPM_P1;HPM_P2
2021/12/28 00:01:09;;;;;;;33.05;10.95;;;;;;;5.93;100.00;99487.13;4973846;28;20059;-88
2021/12/28 00:03:37;;;;;;;39.88;11.35;;;;;;;5.94;100.00;99488.81;4992473;28;20054;-87
2021/12/28 00:06:04;;;;;;;37.85;11.23;;;;;;;5.88;100.00;99476.09;4995344;28;20157;-87
2021/12/28 00:08:35;;;;;;;38.85;10.90;;;;;;;5.80;100.00;99470.31;4994773;28;20053;-93
2021/12/28 00:11:19;;;;;;;37.53;11.88;;;;;;;5.76;100.00;99473.84;4974441;28;20380;-93
2021/12/28 00:13:52;;;;;;;50.47;11.25;;;;;;;5.73;100.00;99472.19;4975287;28;20022;-92
2021/12/28 00:17:58;;;;;;;44.63;10.90;;;;;;;5.65;100.00;99475.84;4977071;28;20037;-92
2021/12/28 00:19:29;;;;;;;37.50;10.77;;;;;;;5.56;100.00;99475.19;4991324;28;20121;-92
2021/12/28 00:21:57;;;;;;;40.00;10.43;;;;;;;5.54;100.00;99484.66;4987603;28;20042;-92
2021/12/28 00:24:42;;;;;;;43.13;10.70;;;;;;;5.47;100.00;99477.13;4974231;28;20035;-93
2021/12/28 00:27:27;;;;;;;45.63;11.23;;;;;;;5.45;100.00;99479.78;4992007;28;20443;-93
2021/12/28 00:29:52;;;;;;;42.53;10.77;;;;;;;5.42;100.00;99474.69;5019662;28;20045;-95
2021/12/28 00:32:21;;;;;;;43.40;11.25;;;;;;;5.47;100.00;99477.13;4991160;28;20104;-94
2021/12/28 00:34:49;;;;;;;46.20;11.38;;;;;;;5.36;100.00;99469.72;4993856;28;20029;-94
2021/12/28 00:37:42;;;;;;;39.67;11.20;;;;;;;5.37;100.00;99468.00;5013280;28;20037;-94
2021/12/28 00:40:13;;;;;;;40.92;10.93;;;;;;;5.40;100.00;99471.31;4988805;28;20119;-94
2021/12/28 00:42:59;;;;;;;38.33;10.95;;;;;;;5.34;100.00;99460.34;5001799;28;20073;-95
2021/12/28 00:45:34;;;;;;;50.40;12.02;;;;;;;5.29;100.00;99450.19;5012166;28;20026;-94
2021/12/28 00:48:10;;;;;;;48.17;11.60;;;;;;;5.34;100.00;99455.22;5014763;28;20109;-94
2021/12/28 00:50:40;;;;;;;47.45;10.80;;;;;;;5.32;100.00;99460.38;4995584;28;20045;-95
2021/12/28 00:53:06;;;;;;;38.47;11.90;;;;;;;5.28;100.00;99448.50;4994007;28;20582;-94
2021/12/28 00:55:36;;;;;;;40.70;12.27;;;;;;;5.31;100.00;99452.72;4997320;28;20128;-93
2021/12/28 00:58:04;;;;;;;37.10;10.95;;;;;;;5.27;100.00;99454.50;4995819;28;20026;-94
2021/12/28 01:00:46;;;;;;;39.45;11.57;;;;;;;5.23;100.00;99457.22;5011985;28;20042;-93
2021/12/28 01:03:19;;;;;;;51.63;11.77;;;;;;;5.16;100.00;99438.53;4986605;28;20068;-95
2021/12/28 01:05:46;;;;;;;49.55;12.27;;;;;;;5.13;100.00;99436.03;4999356;28;20129;-94
2021/12/28 01:08:15;;;;;;;48.45;11.68;;;;;;;5.13;100.00;99443.72;4995878;28;20122;-94
2021/12/28 01:10:57;;;;;;;42.47;11.38;;;;;;;5.06;100.00;99437.06;4992973;28;20022;-94
2021/12/28 01:13:34;;;;;;;46.60;11.13;;;;;;;5.13;100.00;99430.88;4993890;28;20495;-94
2021/12/28 01:16:06;;;;;;;41.03;11.68;;;;;;;5.22;100.00;99435.81;5023273;28;20026;-94
2021/12/28 01:18:46;;;;;;;50.70;11.80;;;;;;;5.29;100.00;99432.22;5013670;28;20068;-89
2021/12/28 01:21:14;;;;;;;53.55;11.77;;;;;;;5.35;100.00;99431.22;5002994;28;20383;-89
2021/12/28 01:23:45;;;;;;;54.15;11.98;;;;;;;5.44;100.00;99442.09;4993633;28;20030;-89
2021/12/28 01:26:13;;;;;;;44.00;11.75;;;;;;;5.53;100.00;99441.84;5018187;28;20487;-89
2021/12/28 01:28:42;;;;;;;49.53;11.85;;;;;;;5.49;100.00;99432.53;4994540;28;20566;-89
2021/12/28 01:31:10;;;;;;;45.17;12.85;;;;;;;5.46;100.00;99426.63;4993006;28;20144;-89
2021/12/28 01:33:39;;;;;;;36.88;11.82;;;;;;;5.43;100.00;99430.13;4991596;28;20030;-89
2021/12/28 01:36:09;;;;;;;58.95;12.90;;;;;;;5.43;100.00;99448.13;5000915;28;20013;-89
2021/12/28 01:38:37;;;;;;;57.33;11.45;;;;;;;5.40;100.00;99442.19;5010137;28;20083;-89
2021/12/28 01:41:05;;;;;;;52.70;11.93;;;;;;;5.27;100.00;99428.81;4993104;28;20164;-89
2021/12/28 01:43:37;;;;;;;47.30;11.90;;;;;;;5.22;100.00;99424.69;4996809;28;20376;-89
2021/12/28 01:46:04;;;;;;;53.47;11.70;;;;;;;5.18;100.00;99420.53;5003210;28;20059;-89
2021/12/28 01:48:40;;;;;;;43.63;10.70;;;;;;;5.15;100.00;99419.72;5017414;28;20021;-89
2021/12/28 01:51:17;;;;;;;43.92;11.25;;;;;;;5.10;100.00;99420.72;5002573;28;20026;-89
2021/12/28 01:53:44;;;;;;;46.95;11.73;;;;;;;5.05;100.00;99423.38;4994057;28;20040;-89
2021/12/28 01:56:16;;;;;;;45.78;11.32;;;;;;;5.12;100.00;99437.75;5007075;28;20032;-89
2021/12/28 01:58:45;;;;;;;45.17;11.25;;;;;;;5.06;100.00;99432.75;4981216;28;20509;-89
2021/12/28 02:01:14;;;;;;;48.90;11.48;;;;;;;5.03;100.00;99419.16;4999860;28;20040;-89
2021/12/28 02:03:43;;;;;;;47.65;11.02;;;;;;;5.10;100.00;99434.41;4996414;28;20285;-89
2021/12/28 02:06:12;;;;;;;47.33;11.48;;;;;;;5.03;100.00;99424.31;4993549;28;20065;-89
2021/12/28 02:08:45;;;;;;;47.97;11.02;;;;;;;4.99;100.00;99420.09;5014429;28;20029;-89
2021/12/28 02:11:13;;;;;;;52.70;11.23;;;;;;;5.07;100.00;99428.47;5019268;28;20033;-89
2021/12/28 02:13:40;;;;;;;56.58;11.15;;;;;;;5.03;100.00;99422.59;4998030;28;20107;-89
2021/12/28 02:16:15;;;;;;;50.97;11.40;;;;;;;5.02;100.00;99422.59;5004655;28;20351;-89
2021/12/28 02:18:49;;;;;;;44.17;11.00;;;;;;;5.03;100.00;99425.16;5000089;28;20030;-89
2021/12/28 02:21:18;;;;;;;52.17;11.50;;;;;;;5.01;100.00;99423.47;4996072;28;20029;-89
2021/12/28 02:24:04;;;;;;;51.33;11.82;;;;;;;5.09;100.00;99427.56;5014108;28;20437;-89
2021/12/28 02:26:35;;;;;;;49.92;11.77;;;;;;;5.13;100.00;99424.03;5020933;28;20026;-89
2021/12/28 02:29:08;;;;;;;46.63;10.88;;;;;;;5.20;100.00;99426.44;4990989;28;20049;-89
2021/12/28 02:31:41;;;;;;;58.05;10.85;;;;;;;5.23;100.00;99416.94;4979990;28;20136;-89
2021/12/28 02:34:07;;;;;;;50.55;11.48;;;;;;;5.41;100.00;99426.75;4981569;28;20029;-89
2021/12/28 02:36:34;;;;;;;42.80;10.00;;;;;;;5.52;100.00;99422.19;4980392;28;20036;-89
2021/12/28 02:39:00;;;;;;;53.80;10.20;;;;;;;5.57;100.00;99402.34;4993873;28;20041;-89
2021/12/28 02:41:30;;;;;;;45.58;9.98;;;;;;;5.65;100.00;99406.44;4977503;28;20038;-89
2021/12/28 02:44:03;;;;;;;60.65;10.40;;;;;;;5.69;100.00;99390.03;4989212;28;20081;-89
2021/12/28 02:46:36;;;;;;;52.00;9.68;;;;;;;5.81;100.00;99405.97;4971772;28;20035;-90
2021/12/28 02:49:04;;;;;;;46.72;9.25;;;;;;;5.79;100.00;99396.63;4978023;28;20046;-94
2021/12/28 02:51:33;;;;;;;49.30;9.25;;;;;;;5.87;100.00;99405.84;4993790;28;20065;-94
2021/12/28 02:54:01;;;;;;;51.95;9.45;;;;;;;5.85;100.00;99388.75;4973153;28;20030;-95
2021/12/28 02:56:34;;;;;;;53.15;9.23;;;;;;;5.88;100.00;99391.25;4985406;28;20116;-94
2021/12/28 02:59:03;;;;;;;59.97;9.82;;;;;;;5.87;100.00;99385.25;4972612;28;20027;-94
2021/12/28 03:01:34;;;;;;;46.30;8.48;;;;;;;5.85;100.00;99373.31;4967404;28;20023;-94
2021/12/28 03:04:08;;;;;;;55.08;8.35;;;;;;;5.90;100.00;99376.63;4986413;28;20053;-94
2021/12/28 03:06:41;;;;;;;45.25;8.07;;;;;;;5.89;100.00;99383.50;4979673;28;20306;-95
2021/12/28 03:09:09;;;;;;;56.35;8.35;;;;;;;5.89;100.00;99380.94;4975075;28;20029;-94
2021/12/28 03:11:43;;;;;;;48.58;7.80;;;;;;;5.90;100.00;99377.47;4972195;28;20491;-94
2021/12/28 03:14:13;;;;;;;62.58;8.65;;;;;;;5.87;100.00;99369.84;4981448;28;20381;-94
2021/12/28 03:16:44;;;;;;;55.92;8.43;;;;;;;5.90;100.00;99368.91;4988445;28;20025;-94
2021/12/28 03:19:12;;;;;;;46.05;7.03;;;;;;;5.89;100.00;99370.66;4981116;28;20019;-89
2021/12/28 03:21:46;;;;;;;44.55;7.40;;;;;;;6.00;100.00;99374.66;4980541;28;20082;-89
2021/12/28 03:24:19;;;;;;;49.13;7.57;;;;;;;5.93;100.00;99356.00;5005839;28;20399;-89
2021/12/28 03:26:52;;;;;;;48.30;7.15;;;;;;;6.01;100.00;99366.88;4985929;28;20046;-89
2021/12/28 03:29:22;;;;;;;51.13;7.63;;;;;;;6.01;100.00;99360.88;5002839;28;20056;-89
2021/12/28 03:31:58;;;;;;;54.25;7.47;;;;;;;6.01;100.00;99361.72;4974208;28;20034;-89
2021/12/28 03:34:28;;;;;;;59.25;7.82;;;;;;;5.94;100.00;99352.50;4971514;28;20023;-89
2021/12/28 03:36:54;;;;;;;52.50;7.32;;;;;;;5.95;100.00;99351.63;4983803;28;20020;-89
2021/12/28 03:39:32;;;;;;;40.70;7.13;;;;;;;5.91;100.00;99339.75;4974667;28;20038;-89
2021/12/28 03:41:58;;;;;;;45.10;6.95;;;;;;;5.89;100.00;99333.81;4989477;28;20090;-88
2021/12/28 03:44:29;;;;;;;46.75;7.15;;;;;;;5.80;100.00;99327.16;5025213;28;20030;-88
2021/12/28 03:46:54;;;;;;;37.55;7.00;;;;;;;5.80;100.00;99328.91;4992544;28;20510;-89
2021/12/28 03:49:31;;;;;;;47.28;6.22;;;;;;;5.75;100.00;99315.31;4976804;28;20022;-89
2021/12/28 03:52:01;;;;;;;57.30;7.80;;;;;;;5.69;100.00;99308.63;4984174;28;20031;-89
2021/12/28 03:54:26;;;;;;;47.50;6.72;;;;;;;5.71;100.00;99311.16;4975076;28;20034;-89
2021/12/28 03:56:56;;;;;;;46.10;7.00;;;;;;;5.75;100.00;99321.31;4977854;28;20026;-89
2021/12/28 03:59:24;;;;;;;41.65;6.75;;;;;;;5.81;100.00;99312.56;4985780;28;20042;-89
2021/12/28 04:01:53;;;;;;;54.78;7.13;;;;;;;6.00;100.00;99315.50;4984074;28;20068;-89
2021/12/28 04:04:25;;;;;;;51.80;7.45;;;;;;;6.03;100.00;99308.53;4974221;28;20504;-89
2021/12/28 04:06:50;;;;;;;49.08;6.85;;;;;;;6.08;100.00;99318.66;4997754;28;20026;-89
2021/12/28 04:09:56;;;;;;;54.92;7.22;;;;;;;6.20;100.00;99318.31;4981431;28;20041;-89
2021/12/28 04:12:10;;;;;;;54.70;7.28;;;;;;;6.27;100.00;99318.09;5000043;28;20053;-89
2021/12/28 04:14:41;;;;;;;50.67;8.00;;;;;;;6.30;100.00;99307.69;4974528;28;20400;-89
2021/12/28 04:17:12;;;;;;;64.57;7.18;;;;;;;6.33;100.00;99306.75;4988223;28;20018;-89
2021/12/28 04:19:46;;;;;;;57.03;7.05;;;;;;;6.43;100.00;99315.00;4975123;28;20113;-89
2021/12/28 04:22:11;;;;;;;63.10;6.70;;;;;;;6.48;100.00;99311.44;5003018;28;20069;-89
2021/12/28 04:24:39;;;;;;;50.55;6.75;;;;;;;6.49;100.00;99305.38;4981713;28;20025;-89
2021/12/28 04:27:07;;;;;;;63.63;7.57;;;;;;;6.54;100.00;99300.09;4974032;28;20065;-89
2021/12/28 04:29:35;;;;;;;47.38;6.97;;;;;;;6.61;100.00;99301.59;4989504;28;20133;-89
2021/12/28 04:32:01;;;;;;;51.13;6.65;;;;;;;6.69;100.00;99297.00;5007856;28;20030;-89
2021/12/28 04:34:29;;;;;;;56.15;7.35;;;;;;;6.67;100.00;99296.22;5002426;28;20064;-89
2021/12/28 04:37:01;;;;;;;51.92;7.57;;;;;;;6.70;100.00;99285.81;5019522;28;20029;-89
2021/12/28 04:39:43;;;;;;;64.32;6.75;;;;;;;6.75;100.00;99302.78;5017594;28;20025;-89
2021/12/28 04:42:12;;;;;;;47.13;6.10;;;;;;;6.86;100.00;99314.47;5002123;28;20025;-89
2021/12/28 04:44:45;;;;;;;54.25;6.28;;;;;;;6.82;100.00;99303.47;4993179;28;20041;-89
2021/12/28 04:47:16;;;;;;;43.13;6.07;;;;;;;6.91;100.00;99317.75;4992806;28;20048;-89
2021/12/28 04:49:48;;;;;;;44.83;6.10;;;;;;;6.88;100.00;99310.97;4996159;28;20200;-89
2021/12/28 04:52:36;;;;;;;61.75;6.72;;;;;;;6.91;100.00;99305.72;5014499;28;20065;-90
2021/12/28 04:55:09;;;;;;;41.15;5.93;;;;;;;7.00;100.00;99309.72;4986696;28;20613;-89
2021/12/28 04:57:58;;;;;;;49.63;6.03;;;;;;;7.04;100.00;99314.69;4996503;28;20026;-89
2021/12/28 05:00:26;;;;;;;43.75;6.03;;;;;;;7.08;100.00;99310.31;5012389;28;20049;-89
2021/12/28 05:02:54;;;;;;;49.60;5.35;;;;;;;7.11;100.00;99308.44;5005440;28;20553;-89
2021/12/28 05:05:27;;;;;;;37.17;5.20;;;;;;;7.10;100.00;99300.75;4993420;28;20025;-89
2021/12/28 05:07:58;;;;;;;46.90;5.65;;;;;;;7.16;100.00;99310.03;4998458;28;20087;-89
2021/12/28 05:10:26;;;;;;;47.50;5.47;;;;;;;7.22;100.00;99318.41;4998846;28;20048;-89
2021/12/28 05:12:56;;;;;;;37.67;5.82;;;;;;;7.22;100.00;99299.53;5003496;28;20030;-89
2021/12/28 05:15:35;;;;;;;39.42;5.88;;;;;;;7.25;100.00;99299.41;5000398;28;20487;-89
2021/12/28 05:18:01;;;;;;;43.03;5.47;;;;;;;7.29;100.00;99294.09;5004003;28;20052;-89
2021/12/28 05:20:36;;;;;;;34.58;6.70;;;;;;;7.25;100.00;99284.78;5020228;28;20065;-89
2021/12/28 05:26:02;;;;;;;47.70;9.75;;;;;;;7.36;100.00;99292.16;5009647;28;20030;-89
2021/12/28 05:28:35;;;;;;;56.47;11.70;;;;;;;7.36;100.00;99282.69;5013932;28;20046;-89
2021/12/28 05:31:01;;;;;;;54.33;10.97;;;;;;;7.38;100.00;99283.44;4996524;28;20037;-89
2021/12/28 05:33:32;;;;;;;57.03;11.15;;;;;;;7.39;100.00;99281.72;5007042;28;20323;-89
2021/12/28 05:36:01;;;;;;;46.22;9.23;;;;;;;7.38;100.00;99277.44;5012547;28;20033;-89
2021/12/28 05:38:35;;;;;;;46.05;7.47;;;;;;;7.40;100.00;99278.25;5016408;28;20057;-89
2021/12/28 05:41:07;;;;;;;39.20;6.57;;;;;;;7.44;100.00;99270.34;4994546;28;20053;-89
2021/12/28 05:43:35;;;;;;;42.85;5.90;;;;;;;7.45;100.00;99268.59;5005367;28;20493;-89
2021/12/28 05:46:01;;;;;;;40.97;5.75;;;;;;;7.45;100.00;99266.88;4998001;28;20063;-89
2021/12/28 05:48:37;;;;;;;33.80;4.97;;;;;;;7.48;100.00;99269.34;5003215;28;20113;-89
2021/12/28 05:51:05;;;;;;;37.60;5.70;;;;;;;7.49;100.00;99263.31;4991536;28;20029;-89
2021/12/28 05:53:42;;;;;;;42.63;6.03;;;;;;;7.51;100.00;99265.78;5007494;28;20049;-88
2021/12/28 05:56:12;;;;;;;30.85;4.65;;;;;;;7.49;100.00;99257.31;4993376;28;20033;-89
2021/12/28 05:59:03;;;;;;;31.30;4.95;;;;;;;7.56;100.00;99269.06;5008151;28;20398;-89
2021/12/28 06:01:54;;;;;;;37.25;5.60;;;;;;;7.52;100.00;99252.00;5013167;28;20037;-90
2021/12/28 06:04:22;;;;;;;41.38;4.65;;;;;;;7.50;100.00;99251.25;5011323;28;20040;-89
2021/12/28 06:06:59;;;;;;;;;;;;;;;;;;;;;
2021/12/28 06:09:31;;;;;;;30.33;4.80;;;;;;;7.51;100.00;99243.44;5007500;28;20026;-89
2021/12/28 06:12:25;;;;;;;35.50;5.25;;;;;;;7.54;100.00;99255.38;5008034;28;20036;-89
2021/12/28 06:15:02;;;;;;;30.23;4.50;;;;;;;7.56;100.00;99247.59;5022187;28;20041;-89
2021/12/28 06:17:30;;;;;;;23.38;3.80;;;;;;;7.59;100.00;99250.03;5031885;28;20061;-89
2021/12/28 06:20:01;;;;;;;32.28;4.40;;;;;;;7.61;100.00;99246.53;5014111;28;20430;-89
2021/12/28 06:22:32;;;;;;;30.50;4.35;;;;;;;7.59;100.00;99248.31;4993216;28;20025;-89
2021/12/28 06:25:01;;;;;;;32.97;4.15;;;;;;;7.60;100.00;99238.84;4993181;28;20116;-89
2021/12/28 06:27:34;;;;;;;23.75;3.70;;;;;;;7.65;100.00;99247.25;4991478;28;20057;-89
2021/12/28 06:30:12;;;;;;;33.00;4.13;;;;;;;7.62;100.00;99237.91;4992199;28;20045;-89
2021/12/28 06:32:49;;;;;;;25.63;4.18;;;;;;;7.66;100.00;99242.03;5023549;28;20030;-89
2021/12/28 06:35:58;;;;;;;25.73;4.63;;;;;;;7.68;100.00;99234.25;4990451;28;20029;-89
2021/12/28 06:38:41;;;;;;;25.85;4.03;;;;;;;7.66;100.00;99223.97;5008089;28;20108;-88
2021/12/28 06:41:17;;;;;;;35.83;4.30;;;;;;;7.73;100.00;99240.91;4993020;28;20041;-89
2021/12/28 06:43:48;;;;;;;27.88;4.00;;;;;;;7.70;100.00;99230.72;4990697;28;20069;-88
2021/12/28 06:46:20;;;;;;;27.92;3.78;;;;;;;7.63;100.00;99213.81;4999551;28;20121;-89
2021/12/28 06:48:58;;;;;;;24.00;3.80;;;;;;;7.70;100.00;99215.25;4990606;28;20041;-89
2021/12/28 06:51:36;;;;;;;25.00;3.92;;;;;;;7.63;100.00;99202.63;4991515;28;20030;-89
2021/12/28 06:54:16;;;;;;;24.17;3.92;;;;;;;7.64;100.00;99210.31;4997445;28;20096;-89
2021/12/28 06:56:42;;;;;;;26.48;4.40;;;;;;;7.62;100.00;99209.53;5015886;28;20022;-89
2021/12/28 06:59:13;;;;;;;19.13;3.47;;;;;;;7.63;100.00;99221.53;4998022;28;20026;-89
2021/12/28 07:02:05;;;;;;;24.48;3.65;;;;;;;7.60;100.00;99215.63;5013631;28;20044;-89
2021/12/28 07:04:38;;;;;;;23.15;3.40;;;;;;;7.66;100.00;99220.56;5016653;28;20024;-89
2021/12/28 07:07:14;;;;;;;27.73;4.18;;;;;;;7.68;100.00;99213.63;5015063;28;20124;-89
2021/12/28 07:10:03;;;;;;;27.30;3.75;;;;;;;7.67;100.00;99202.44;4996669;28;20157;-89
2021/12/28 07:12:36;;;;;;;20.38;3.47;;;;;;;7.67;100.00;99211.94;4998398;28;20410;-89
2021/12/28 07:15:04;;;;;;;17.25;3.55;;;;;;;7.59;100.00;99201.91;5005346;28;20026;-89
2021/12/28 07:17:35;;;;;;;24.80;4.10;;;;;;;7.61;100.00;99207.84;4998239;28;20029;-88
2021/12/28 07:20:03;;;;;;;28.00;4.07;;;;;;;7.63;100.00;99200.91;4998381;28;20029;-88
2021/12/28 07:22:46;;;;;;;24.88;3.83;;;;;;;7.66;100.00;99207.66;4997890;28;20026;-88
2021/12/28 07:25:18;;;;;;;27.63;3.65;;;;;;;7.68;100.00;99209.28;4995795;28;20117;-89
2021/12/28 07:27:43;;;;;;;26.02;4.00;;;;;;;7.63;100.00;99200.91;5002566;28;20104;-89
2021/12/28 07:30:33;;;;;;;21.77;3.70;;;;;;;7.64;100.00;99205.16;4997931;28;20112;-89
2021/12/28 07:33:02;;;;;;;26.77;3.65;;;;;;;7.67;100.00;99204.19;4997312;28;20045;-89
2021/12/28 07:35:46;;;;;;;22.70;3.97;;;;;;;7.69;100.00;99208.41;4998058;28;20453;-89
2021/12/28 07:38:14;;;;;;;23.70;3.85;;;;;;;7.69;100.00;99199.81;4997993;28;20020;-88
2021/12/28 07:40:40;;;;;;;28.92;4.30;;;;;;;7.71;100.00;99201.44;5028442;28;20053;-90
2021/12/28 07:43:17;;;;;;;21.00;4.20;;;;;;;7.71;100.00;99190.31;4998674;28;20060;-88
2021/12/28 07:45:52;;;;;;;18.35;3.80;;;;;;;7.79;100.00;99196.81;4992238;28;20038;-88
2021/12/28 07:48:21;;;;;;;19.40;4.45;;;;;;;7.73;100.00;99186.75;4996350;28;20125;-89
2021/12/28 07:50:57;;;;;;;24.30;4.80;;;;;;;7.74;100.00;99196.16;5015375;28;20037;-88
2021/12/28 07:53:34;;;;;;;23.83;4.10;;;;;;;7.79;100.00;99203.72;4996621;28;20074;-88
2021/12/28 07:56:03;;;;;;;23.60;4.22;;;;;;;7.76;100.00;99194.38;5030137;28;20490;-89
2021/12/28 07:59:04;;;;;;;23.90;4.07;;;;;;;7.77;100.00;99190.91;5003709;28;20030;-88
2021/12/28 08:01:47;;;;;;;19.70;4.05;;;;;;;7.81;100.00;99201.94;5002414;28;20061;-89
2021/12/28 08:04:16;;;;;;;17.98;3.85;;;;;;;7.82;100.00;99198.44;4996284;28;20037;-88
2021/12/28 08:06:54;;;;;;;24.17;4.68;;;;;;;7.85;100.00;99204.31;5016335;28;20036;-89
2021/12/28 08:09:37;;;;;;;16.33;4.15;;;;;;;7.82;100.00;99190.72;5011237;28;20591;-89
2021/12/28 08:12:08;;;;;;;23.40;6.47;;;;;;;7.88;100.00;99203.38;4970655;28;20038;-88
2021/12/28 08:14:34;;;;;;;25.05;6.05;;;;;;;7.85;100.00;99188.00;4974037;28;20114;-88
2021/12/28 08:17:02;;;;;;;20.75;4.68;;;;;;;7.95;100.00;99199.66;4971306;28;20134;-88
2021/12/28 08:19:38;;;;;;;16.52;4.20;;;;;;;7.93;100.00;99194.53;4957429;28;20031;-88
2021/12/28 08:22:06;;;;;;;17.95;3.78;;;;;;;7.94;100.00;99198.81;4970155;28;20659;-88
2021/12/28 08:28:13;;;;;;;22.50;3.80;;;;;;;7.97;100.00;99191.84;4908760;29;20044;-90
2021/12/28 08:31:04;;;;;;;22.05;4.18;;;;;;;7.95;100.00;99189.34;4898194;28;20570;-90
2021/12/28 08:33:56;;;;;;;24.40;4.50;;;;;;;7.97;100.00;99187.53;4965445;28;20069;-90
2021/12/28 08:37:02;;;;;;;21.98;4.35;;;;;;;8.06;100.00;99186.31;4956362;28;20130;-90
2021/12/28 08:39:42;;;;;;;16.83;4.28;;;;;;;8.02;100.00;99170.13;4969819;28;20069;-89
2021/12/28 08:42:11;;;;;;;17.55;4.32;;;;;;;8.04;100.00;99177.81;4977374;28;20109;-90
2021/12/28 08:44:36;;;;;;;19.20;4.88;;;;;;;8.12;100.00;99173.19;4987849;28;20033;-90
2021/12/28 08:47:05;;;;;;;22.73;4.82;;;;;;;8.09;100.00;99162.97;4992740;28;20083;-89
2021/12/28 08:49:44;;;;;;;20.00;5.38;;;;;;;8.11;100.00;99168.94;5027816;28;20029;-90
2021/12/28 08:52:12;;;;;;;20.63;4.78;;;;;;;8.21;100.00;99183.13;5018786;28;20021;-88
2021/12/28 08:54:37;;;;;;;17.73;5.10;;;;;;;8.22;100.00;99177.91;5003801;28;20030;-89
2021/12/28 08:57:08;;;;;;;19.30;4.82;;;;;;;8.22;100.00;99170.16;5013603;28;20295;-89
2021/12/28 09:00:10;;;;;;;18.30;5.20;;;;;;;8.30;100.00;99177.59;5014451;28;20029;-89
2021/12/28 09:03:03;;;;;;;18.50;5.13;;;;;;;8.28;100.00;99167.31;4993403;28;20068;-89
2021/12/28 09:05:37;;;;;;;19.00;5.70;;;;;;;8.31;100.00;99163.81;4996995;28;20038;-89
2021/12/28 09:08:21;;;;;;;19.60;5.07;;;;;;;8.38;100.00;99162.66;4991877;28;20041;-91
2021/12/28 09:12:48;;;;;;;24.25;5.82;;;;;;;8.43;100.00;99165.88;4999650;28;20388;-93
2021/12/28 09:18:01;;;;;;;20.42;5.53;;;;;;;8.60;100.00;99160.84;5009572;28;20521;-95
2021/12/28 09:24:02;;;;;;;16.45;5.20;;;;;;;8.68;100.00;99166.50;4958730;28;20604;-94
2021/12/28 09:30:03;;;;;;;22.17;5.82;;;;;;;8.70;100.00;99156.13;4983287;28;20078;-94
2021/12/28 09:33:01;;;;;;;17.65;5.43;;;;;;;8.73;100.00;99151.66;4973224;28;20488;-94
2021/12/28 09:36:17;;;;;;;;;;;;;;;;;;;;;
2021/12/28 09:39:07;;;;;;;18.55;5.38;;;;;;;8.87;100.00;99148.47;4983408;28;20026;-90
2021/12/28 09:42:08;;;;;;;18.77;5.55;;;;;;;8.84;100.00;99140.03;4945291;28;20041;-90
2021/12/28 09:48:04;;;;;;;20.40;6.00;;;;;;;8.85;100.00;99126.22;4959571;28;20031;-90
2021/12/28 09:51:01;;;;;;;19.67;5.97;;;;;;;8.89;100.00;99132.91;4970929;28;20065;-91
2021/12/28 09:54:01;;;;;;;17.67;5.68;;;;;;;8.90;100.00;99119.09;4926331;28;20101;-91
2021/12/28 09:57:24;;;;;;;;;;;;;;;;;;;;;
2021/12/28 10:00:04;;;;;;;18.58;5.40;;;;;;;8.92;100.00;99128.47;4910624;29;20426;-90
2021/12/28 10:02:58;;;;;;;18.55;5.97;;;;;;;8.89;100.00;99118.25;4968216;28;20468;-90
2021/12/28 10:05:40;;;;;;;19.30;5.33;;;;;;;8.95;100.00;99117.13;4967257;28;20038;-89
2021/12/28 10:08:34;;;;;;;19.58;6.00;;;;;;;8.95;100.00;99110.22;4951879;28;20348;-89
2021/12/28 10:11:02;;;;;;;19.50;6.00;;;;;;;8.99;100.00;99103.19;4970308;28;20030;-88
2021/12/28 10:17:32;;;;;;;23.20;6.88;;;;;;;9.21;100.00;99087.53;4948190;29;20035;-89
2021/12/28 10:20:24;;;;;;;25.50;6.90;;;;;;;9.28;100.00;99084.56;4936569;28;20026;-90
2021/12/28 10:24:07;;;;;;;;;;;;;;;;;;;;;
2021/12/28 10:26:47;;;;;;;23.10;7.38;;;;;;;9.17;100.00;99073.91;4872631;28;20128;-89
2021/12/28 10:30:23;;;;;;;;;;;;;;;;;;;;;
2021/12/28 10:33:11;;;;;;;25.02;8.02;;;;;;;9.23;100.00;99075.34;4855586;29;20037;-90
2021/12/28 10:36:04;;;;;;;21.67;7.65;;;;;;;9.28;100.00;99071.63;4872756;29;20037;-90
2021/12/28 10:39:01;;;;;;;25.23;7.93;;;;;;;9.32;100.00;99059.41;4848633;29;20045;-91
2021/12/28 10:41:58;;;;;;;22.88;7.75;;;;;;;9.30;100.00;99041.38;4854504;29;20040;-90
2021/12/28 10:44:46;;;;;;;28.17;8.57;;;;;;;9.34;100.00;99037.75;4856900;29;20068;-89
2021/12/28 10:47:41;;;;;;;26.83;8.70;;;;;;;9.44;100.00;99044.16;4869463;29;20115;-89
2021/12/28 10:50:27;;;;;;;;;;;;;;;9.52;100.00;99044.63;4870840;29;20124;-89
2021/12/28 10:57:03;;;;;;;24.50;7.57;;;;;;;9.42;100.00;99035.63;4891327;29;20043;-89
2021/12/28 10:59:46;;;;;;;28.75;8.18;;;;;;;9.42;100.00;99027.88;4942167;28;20153;-90
2021/12/28 11:02:43;;;;;;;22.67;7.68;;;;;;;9.40;100.00;99026.28;4993630;28;20026;-89
2021/12/28 11:06:00;;;;;;;20.75;7.43;;;;;;;9.45;100.00;99038.06;4995405;28;20033;-90
2021/12/28 11:08:39;;;;;;;23.30;7.85;;;;;;;9.39;100.00;99028.03;4971642;28;20610;-89
2021/12/28 11:11:14;;;;;;;23.40;7.13;;;;;;;9.43;100.00;99026.13;4985617;28;20113;-89
2021/12/28 11:17:20;;;;;;;;;;;;;;;;;;;;;
2021/12/28 11:24:17;;;;;;;;;;;;;;;;;;;;;
2021/12/28 11:27:03;;;;;;;23.20;7.63;;;;;;;9.41;100.00;98986.59;4963262;28;20090;-90
2021/12/28 11:30:01;;;;;;;23.00;8.07;;;;;;;9.39;100.00;98971.16;4959918;28;20063;-91
2021/12/28 11:32:40;;;;;;;23.73;8.15;;;;;;;9.38;100.00;98978.97;4948872;29;20043;-90
2021/12/28 11:39:02;;;;;;;22.45;7.80;;;;;;;9.43;100.00;98987.34;4926239;29;20517;-91
2021/12/28 11:42:01;;;;;;;21.88;7.93;;;;;;;9.32;100.00;98956.00;4915999;29;20035;-90
2021/12/28 11:45:03;;;;;;;23.92;7.82;;;;;;;9.32;100.00;98951.66;4871268;29;20468;-91
2021/12/28 11:47:48;;;;;;;18.02;7.13;;;;;;;9.27;100.00;98947.66;4847637;29;20634;-90
2021/12/28 11:50:54;;;;;;;18.50;7.20;;;;;;;9.34;100.00;98959.34;4930710;29;20043;-89
2021/12/28 11:54:15;;;;;;;17.58;6.00;;;;;;;9.25;100.00;98941.69;4926908;28;20038;-89
2021/12/28 11:57:14;;;;;;;11.63;4.07;;;;;;;9.23;100.00;98948.69;4971570;28;20038;-90
2021/12/28 12:00:01;;;;;;;13.20;2.80;;;;;;;9.24;100.00;98952.94;4951142;28;20031;-90
2021/12/28 12:02:37;;;;;;;8.43;2.28;;;;;;;9.16;100.00;98958.47;4969413;28;20049;-91
2021/12/28 12:05:16;;;;;;;11.00;2.28;;;;;;;9.07;100.00;98964.13;4971604;28;20058;-88
2021/12/28 12:07:42;;;;;;;20.48;2.92;;;;;;;9.04;100.00;98965.09;4994266;28;20474;-89
2021/12/28 12:10:14;;;;;;;16.98;3.00;;;;;;;8.91;100.00;98987.25;5011727;28;20037;-89
2021/12/28 12:12:42;;;;;;;21.25;3.97;;;;;;;8.83;100.00;98991.09;5011044;28;20040;-89
2021/12/28 12:15:10;;;;;;;23.15;4.82;;;;;;;8.73;100.00;98972.59;5011032;28;20029;-89
2021/12/28 12:17:38;;;;;;;25.20;5.07;;;;;;;8.69;100.00;98978.81;5010368;28;20380;-89
2021/12/28 12:20:08;;;;;;;35.58;6.00;;;;;;;8.69;100.00;98987.41;5001355;28;20433;-89
2021/12/28 12:22:37;;;;;;;34.60;5.05;;;;;;;8.55;100.00;98965.69;4990641;28;20046;-89
2021/12/28 12:25:15;;;;;;;26.35;5.00;;;;;;;8.63;100.00;98990.25;4978808;28;20041;-89
2021/12/28 12:27:56;;;;;;;42.15;6.03;;;;;;;8.60;100.00;98979.22;4982449;28;20030;-89
2021/12/28 12:30:21;;;;;;;26.65;5.20;;;;;;;8.61;100.00;98978.31;5010435;28;20060;-89
2021/12/28 12:33:06;;;;;;;44.07;6.60;;;;;;;8.59;100.00;98983.56;4993029;28;20034;-89
2021/12/28 12:35:57;;;;;;;34.50;4.67;;;;;;;8.58;100.00;98988.78;5009908;28;20368;-89
2021/12/28 12:38:24;;;;;;;48.10;5.32;;;;;;;8.58;100.00;98992.22;4992309;28;20285;-90
2021/12/28 12:41:13;;;;;;;44.60;5.68;;;;;;;8.60;100.00;98989.53;5002373;28;20030;-89
2021/12/28 12:43:41;;;;;;;43.67;5.25;;;;;;;8.59;100.00;98991.31;5007708;28;20048;-89
2021/12/28 12:46:09;;;;;;;47.65;6.45;;;;;;;8.54;100.00;98972.59;5006725;28;20519;-89
2021/12/28 12:48:41;;;;;;;46.78;5.65;;;;;;;8.56;100.00;98998.34;5004805;28;20575;-88
2021/12/28 12:51:24;;;;;;;40.20;6.20;;;;;;;8.57;100.00;98990.53;4999261;28;20026;-90
2021/12/28 12:53:53;;;;;;;46.53;5.82;;;;;;;8.56;100.00;98986.28;4992544;28;20034;-88
2021/12/28 12:56:32;;;;;;;53.70;6.60;;;;;;;8.61;100.00;98976.56;5009808;28;20216;-88